Orbital elements of COSMOS 970 DEB
| Launched | 20 December 1977 |
| Flight ended | – |
| Launch site | Tyuratam Missile and Space Center, Kazakhstan (Also known as Baikonur Cosmodrome) |
| Owner | Commonwealth of Independent States (former USSR) |
| NORAD ID | 10569 |
| Date fetched |
Epoch osculation |
Inc. [°] |
Ecc. | RA asc node [hr] |
Arg Peri. [°] |
Mean anom [°] |
Mean motion [rev/day] |
Abs. mag |
| Date fetched |
Epoch osculation |
Inc. [°] |
Ecc. | RA asc node [hr] |
Arg Peri. [°] |
Mean anom [°] |
Mean motion [rev/day] |
Abs. mag |
| 2026 May 03 17:57 | 2026 Apr 30 03:10:35 | 65.4007 | 0.01386 | 1.3529 | 201.3855 | 158.1381 | 13.78896 | – |
| 2026 May 02 17:57 | 2026 Apr 30 03:10:35 | 65.4007 | 0.01386 | 1.3529 | 201.3855 | 158.1381 | 13.78896 | – |
| 2026 May 01 17:56 | 2026 Apr 30 03:10:35 | 65.4007 | 0.01386 | 1.3529 | 201.3855 | 158.1381 | 13.78896 | – |
| 2026 Apr 30 17:56 | 2026 Apr 30 03:10:35 | 65.4007 | 0.01386 | 1.3529 | 201.3855 | 158.1381 | 13.78896 | – |
| 2026 Apr 29 17:57 | 2026 Apr 24 04:26:28 | 65.4004 | 0.01391 | 2.3559 | 203.8136 | 158.1381 | 13.78896 | – |
| 2026 Apr 28 17:56 | 2026 Apr 24 04:26:28 | 65.4004 | 0.01391 | 2.3559 | 203.8136 | 158.1381 | 13.78896 | – |
| 2026 Apr 27 17:58 | 2026 Apr 24 04:26:28 | 65.4004 | 0.01391 | 2.3559 | 203.8136 | 158.1381 | 13.78896 | – |
| 2026 Apr 26 17:58 | 2026 Apr 24 04:26:28 | 65.4004 | 0.01391 | 2.3559 | 203.8136 | 158.1381 | 13.78896 | – |
| 2026 Apr 25 17:58 | 2026 Apr 24 04:26:28 | 65.4004 | 0.01391 | 2.3559 | 203.8136 | 158.1381 | 13.78896 | – |
| 2026 Apr 24 17:59 | 2026 Apr 24 04:26:28 | 65.4004 | 0.01391 | 2.3559 | 203.8136 | 158.1381 | 13.78896 | – |
| 2026 Apr 23 17:57 | 2026 Apr 19 06:04:30 | 65.3997 | 0.01396 | 3.1876 | 205.8098 | 158.1381 | 13.78896 | – |
| 2026 Apr 22 17:57 | 2026 Apr 19 06:04:30 | 65.3997 | 0.01396 | 3.1876 | 205.8098 | 158.1381 | 13.78896 | – |
| 2026 Apr 21 17:57 | 2026 Apr 19 06:04:30 | 65.3997 | 0.01396 | 3.1876 | 205.8098 | 158.1381 | 13.78896 | – |
| 2026 Apr 20 17:57 | 2026 Apr 19 06:04:30 | 65.3997 | 0.01396 | 3.1876 | 205.8098 | 158.1381 | 13.78896 | – |
| 2026 Apr 19 17:58 | 2026 Apr 19 06:04:30 | 65.3997 | 0.01396 | 3.1876 | 205.8098 | 158.1381 | 13.78896 | – |
| 2026 Apr 18 17:56 | 2026 Apr 13 00:22:34 | 65.3986 | 0.01402 | 4.2396 | 208.3156 | 158.1381 | 13.78896 | – |
| 2026 Apr 16 17:57 | 2026 Apr 13 00:22:34 | 65.3986 | 0.01402 | 4.2396 | 208.3156 | 158.1381 | 13.78896 | – |
| 2026 Apr 14 17:57 | 2026 Apr 13 00:22:34 | 65.3986 | 0.01402 | 4.2396 | 208.3156 | 158.1381 | 13.78896 | – |
| 2026 Apr 13 17:57 | 2026 Apr 13 00:22:34 | 65.3986 | 0.01402 | 4.2396 | 208.3156 | 158.1381 | 13.78896 | – |
| 2026 Apr 12 17:57 | 2026 Apr 08 07:13:54 | 65.3977 | 0.01406 | 5.0347 | 210.1855 | 158.1381 | 13.78896 | – |
| 2026 Apr 11 17:57 | 2026 Apr 08 07:13:54 | 65.3977 | 0.01406 | 5.0347 | 210.1855 | 158.1381 | 13.78896 | – |
| 2026 Apr 10 17:58 | 2026 Apr 08 07:13:54 | 65.3977 | 0.01406 | 5.0347 | 210.1855 | 158.1381 | 13.78896 | – |
| 2026 Apr 09 18:01 | 2026 Apr 08 07:13:54 | 65.3977 | 0.01406 | 5.0347 | 210.1855 | 158.1381 | 13.78896 | – |
| 2026 Apr 08 17:57 | 2026 Apr 08 07:13:54 | 65.3977 | 0.01406 | 5.0347 | 210.1855 | 158.1381 | 13.78896 | – |
| 2026 Apr 07 17:57 | 2026 Apr 02 06:45:15 | 65.3970 | 0.01412 | 6.0500 | 212.5474 | 158.1381 | 13.78896 | – |
| 2026 Apr 06 17:57 | 2026 Apr 02 06:45:15 | 65.3970 | 0.01412 | 6.0500 | 212.5474 | 158.1381 | 13.78896 | – |